
Distance (Route):
Temperature : -17.1°C
Humidity : 85.5%
Pressure : 0hPa| Receiver | Frames | First received | Last received |
|---|---|---|---|
| LY3OO-11 | 223 | 2026-09-05 11:32:21 | 2026-09-05 13:08:32 |
| Receiver | Date | Latitude | Longitude | Direction | Speed | Altitude | Climb | Temperature | Humidity | Pressure | Voltage | Killtimer | Uptime | BKT | XDATA |
|---|---|---|---|---|---|---|---|---|---|---|---|---|---|---|---|
| LY3OO-11 | 2026-09-05 13:08:32 | 54.93266 | 25.28839 | 0° | 0km/h | 5843m | 0.0m/s | -17.1°C | 85.5% | 0hPa | 0V | 00:00:00 | 00:00:00 | 00:00:00 | |
| LY3OO-11 | 2026-09-05 13:08:10 | 54.93266 | 25.28839 | 0° | 0km/h | 5843m | 0.0m/s | -19.5°C | 71.8% | 0hPa | 0V | 00:00:00 | 00:00:00 | 00:00:00 | |
| LY3OO-11 | 2026-09-05 13:07:49 | 54.93266 | 25.28839 | 0° | 0km/h | 5843m | 0.0m/s | -22.2°C | 67.5% | 0hPa | 0V | 00:00:00 | 00:00:00 | 00:00:00 | |
| LY3OO-11 | 2026-09-05 12:55:52 | 8.97107 | -93.18651 | 0° | 0km/h | 516m | 0.0m/s | -43.1°C | 2.6% | 0hPa | 0V | 00:00:00 | 00:00:00 | 00:00:00 | |
| LY3OO-11 | 2026-09-05 12:55:31 | -36.89287 | -80.79882 | 0° | 0km/h | 7665m | 0.0m/s | -42.9°C | 1.3% | 0hPa | 0V | 00:00:00 | 00:00:00 | 00:00:00 | |
| LY3OO-11 | 2026-09-05 12:55:11 | -41.95721 | -72.48220 | 0° | 0km/h | 9515m | 0.0m/s | -43.6°C | 1.0% | 0hPa | 0V | 00:00:00 | 00:00:00 | 00:00:00 | |
| LY3OO-11 | 2026-09-05 12:54:51 | -36.43824 | -51.33440 | 0° | 0km/h | 7503m | 0.0m/s | -44.5°C | 1.6% | 0hPa | 0V | 00:00:00 | 00:00:00 | 00:00:00 | |
| LY3OO-11 | 2026-09-05 12:54:31 | -41.44817 | -49.22830 | 0° | 0km/h | 9326m | 0.0m/s | -44.3°C | 1.5% | 0hPa | 0V | 00:00:00 | 00:00:00 | 00:00:00 | |
| LY3OO-11 | 2026-09-05 12:54:11 | -22.71459 | -66.03561 | 0° | 0km/h | 3166m | 0.0m/s | -44.6°C | 2.2% | 0hPa | 0V | 00:00:00 | 00:00:00 | 00:00:00 | |
| LY3OO-11 | 2026-09-05 12:53:30 | -16.48050 | -70.16673 | 0° | 0km/h | 1708m | 0.0m/s | -44.9°C | 2.6% | 0hPa | 0V | 00:00:00 | 00:00:00 | 00:00:00 | |
| LY3OO-11 | 2026-09-05 12:53:09 | -12.03042 | -77.05232 | 0° | 0km/h | 958m | 0.0m/s | -44.9°C | 2.7% | 0hPa | 0V | 00:00:00 | 00:00:00 | 00:00:00 | |
| LY3OO-11 | 2026-09-05 12:52:49 | -12.03042 | -77.05232 | 0° | 0km/h | 958m | 0.0m/s | -45.1°C | 2.7% | 0hPa | 0V | 00:00:00 | 00:00:00 | 00:00:00 | |
| LY3OO-11 | 2026-09-05 12:52:29 | -12.03042 | -77.05232 | 0° | 0km/h | 958m | 0.0m/s | -45.5°C | 2.7% | 0hPa | 0V | 00:00:00 | 00:00:00 | 00:00:00 | |
| LY3OO-11 | 2026-09-05 12:52:09 | -12.03042 | -77.05232 | 0° | 0km/h | 958m | 0.0m/s | -45.4°C | 2.8% | 0hPa | 0V | 00:00:00 | 00:00:00 | 00:00:00 | |
| LY3OO-11 | 2026-09-05 12:51:49 | -51.64562 | -83.31833 | 0° | 0km/h | 13108m | 0.0m/s | -44.8°C | 1.1% | 0hPa | 0V | 00:00:00 | 00:00:00 | 00:00:00 | |
| LY3OO-11 | 2026-09-05 12:48:46 | -21.21929 | -62.08912 | 0° | 0km/h | 2781m | 0.0m/s | -45.6°C | 2.3% | 0hPa | 0V | 00:00:00 | 00:00:00 | 00:00:00 | |
| LY3OO-11 | 2026-09-05 12:48:04 | -12.02836 | -77.04719 | 0° | 0km/h | 960m | 0.0m/s | -46.5°C | 2.8% | 0hPa | 0V | 00:00:00 | 00:00:00 | 00:00:00 | |
| LY3OO-11 | 2026-09-05 12:47:43 | -12.02836 | -77.04719 | 0° | 0km/h | 960m | 0.0m/s | -47.5°C | 3.1% | 0hPa | 0V | 00:00:00 | 00:00:00 | 00:00:00 | |
| LY3OO-11 | 2026-09-05 12:47:01 | -12.04046 | -77.05869 | 354° | 199km/h | 987m | -0.2m/s | -47.7°C | 3.1% | 0hPa | 0V | 00:00:00 | 00:00:00 | 00:00:00 | |
| LY3OO-11 | 2026-09-05 12:46:39 | -12.04821 | -77.05157 | 283° | 199km/h | 985m | 0.2m/s | -48.6°C | 3.1% | 0hPa | 0V | 00:00:00 | 00:00:00 | 00:00:00 | |
| LY3OO-11 | 2026-09-05 12:46:18 | -12.04452 | -77.04204 | 216° | 199km/h | 992m | -0.8m/s | -49.5°C | 3.3% | 0hPa | 0V | 00:00:00 | 00:00:00 | 00:00:00 | |
| LY3OO-11 | 2026-09-05 12:45:57 | -12.03442 | -77.04185 | 148° | 201km/h | 995m | 0.2m/s | -48.8°C | 3.2% | 0hPa | 0V | 00:00:00 | 00:00:00 | 00:00:00 | |
| LY3OO-11 | 2026-09-05 12:45:37 | -12.03018 | -77.05086 | 84° | 201km/h | 977m | -0.5m/s | -48.5°C | 3.1% | 0hPa | 0V | 00:00:00 | 00:00:00 | 00:00:00 | |
| LY3OO-11 | 2026-09-05 12:45:16 | -12.03697 | -77.05860 | 16° | 199km/h | 977m | 2.4m/s | -48.3°C | 3.1% | 0hPa | 0V | 00:00:00 | 00:00:00 | 00:00:00 | |
| LY3OO-11 | 2026-09-05 12:42:30 | -12.04350 | -77.05779 | 334° | 201km/h | 981m | 0.6m/s | -50.1°C | 3.4% | 0hPa | 0V | 00:00:00 | 00:00:00 | 00:00:00 | |
| LY3OO-11 | 2026-09-05 12:42:10 | -12.04844 | -77.04935 | 270° | 201km/h | 988m | -1.0m/s | -49.9°C | 3.3% | 0hPa | 0V | 00:00:00 | 00:00:00 | 00:00:00 | |
| LY3OO-11 | 2026-09-05 12:41:50 | -12.04314 | -77.04117 | 205° | 199km/h | 987m | 1.7m/s | -49.7°C | 3.3% | 0hPa | 0V | 00:00:00 | 00:00:00 | 00:00:00 | |
| LY3OO-11 | 2026-09-05 12:41:29 | -12.03318 | -77.04279 | 134° | 197km/h | 988m | -0.1m/s | -49.2°C | 3.2% | 0hPa | 0V | 00:00:00 | 00:00:00 | 00:00:00 | |
| LY3OO-11 | 2026-09-05 12:41:08 | -12.03084 | -77.05278 | 71° | 201km/h | 991m | -0.2m/s | -49.3°C | 3.2% | 0hPa | 0V | 00:00:00 | 00:00:00 | 00:00:00 | |
| LY3OO-11 | 2026-09-05 12:40:48 | -12.03851 | -77.05882 | 6° | 197km/h | 1001m | 3.5m/s | -49.8°C | 3.4% | 0hPa | 0V | 00:00:00 | 00:00:00 | 00:00:00 | |
| LY3OO-11 | 2026-09-05 12:40:27 | -12.04732 | -77.05392 | 299° | 199km/h | 988m | -0.2m/s | -49.9°C | 3.3% | 0hPa | 0V | 00:00:00 | 00:00:00 | 00:00:00 | |
| LY3OO-11 | 2026-09-05 12:40:06 | -12.04641 | -77.04375 | 232° | 201km/h | 987m | -1.3m/s | -50.0°C | 3.4% | 0hPa | 0V | 00:00:00 | 00:00:00 | 00:00:00 | |
| LY3OO-11 | 2026-09-05 12:39:45 | -12.03677 | -77.04073 | 165° | 197km/h | 985m | 1.6m/s | -49.7°C | 3.3% | 0hPa | 0V | 00:00:00 | 00:00:00 | 00:00:00 | |
| LY3OO-11 | 2026-09-05 12:39:25 | -12.03037 | -77.04804 | 100° | 199km/h | 988m | -0.5m/s | -49.7°C | 3.3% | 0hPa | 0V | 00:00:00 | 00:00:00 | 00:00:00 | |
| LY3OO-11 | 2026-09-05 12:39:04 | -12.03455 | -77.05736 | 31° | 201km/h | 980m | 0.3m/s | -49.6°C | 3.3% | 0hPa | 0V | 00:00:00 | 00:00:00 | 00:00:00 | |
| LY3OO-11 | 2026-09-05 12:38:43 | -12.04458 | -77.05707 | 326° | 197km/h | 980m | -2.3m/s | -50.2°C | 3.5% | 0hPa | 0V | 00:00:00 | 00:00:00 | 00:00:00 | |
| LY3OO-11 | 2026-09-05 12:38:23 | -12.04832 | -77.04804 | 262° | 199km/h | 985m | 0.2m/s | -50.1°C | 3.3% | 0hPa | 0V | 00:00:00 | 00:00:00 | 00:00:00 | |
| LY3OO-11 | 2026-09-05 12:38:02 | -12.04143 | -77.04060 | 194° | 199km/h | 985m | -0.1m/s | -50.2°C | 3.4% | 0hPa | 0V | 00:00:00 | 00:00:00 | 00:00:00 | |
| LY3OO-11 | 2026-09-05 12:37:42 | -12.03234 | -77.04378 | 130° | 199km/h | 985m | 0.6m/s | -50.3°C | 3.4% | 0hPa | 0V | 00:00:00 | 00:00:00 | 00:00:00 | |
| LY3OO-11 | 2026-09-05 12:37:21 | -12.03140 | -77.05393 | 62° | 199km/h | 987m | -1.0m/s | -50.5°C | 3.4% | 0hPa | 0V | 00:00:00 | 00:00:00 | 00:00:00 | |
| LY3OO-11 | 2026-09-05 12:37:00 | -12.04029 | -77.05872 | 354° | 201km/h | 986m | 1.4m/s | -50.8°C | 3.5% | 0hPa | 0V | 00:00:00 | 00:00:00 | 00:00:00 | |
| LY3OO-11 | 2026-09-05 12:36:38 | -12.04815 | -77.05174 | 282° | 201km/h | 984m | -0.2m/s | -50.1°C | 3.3% | 0hPa | 0V | 00:00:00 | 00:00:00 | 00:00:00 | |
| LY3OO-11 | 2026-09-05 12:36:16 | -12.04426 | -77.04186 | 214° | 199km/h | 990m | 0.7m/s | -50.4°C | 3.4% | 0hPa | 0V | 00:00:00 | 00:00:00 | 00:00:00 | |
| LY3OO-11 | 2026-09-05 12:35:34 | -9.86664 | -55.52432 | 0° | 0km/h | 623m | 0.0m/s | -51.4°C | 3.7% | 0hPa | 0V | 00:00:00 | 00:00:00 | 00:00:00 | |
| LY3OO-11 | 2026-09-05 12:34:32 | -2.41355 | -68.05962 | 0° | 0km/h | 37m | 0.0m/s | -50.9°C | 3.7% | 0hPa | 0V | 00:00:00 | 00:00:00 | 00:00:00 | |
| LY3OO-11 | 2026-09-05 12:33:50 | 25.39385 | -57.96054 | 0° | 0km/h | 3906m | 0.0m/s | -52.1°C | 2.9% | 0hPa | 0V | 00:00:00 | 00:00:00 | 00:00:00 | |
| LY3OO-11 | 2026-09-05 12:33:30 | -10.26753 | -63.15261 | 0° | 0km/h | 674m | 0.0m/s | -52.5°C | 3.8% | 0hPa | 0V | 00:00:00 | 00:00:00 | 00:00:00 | |
| LY3OO-11 | 2026-09-05 12:33:09 | 54.89779 | 24.73517 | 0° | 0km/h | 14319m | 0.0m/s | -51.6°C | 1.4% | 0hPa | 0V | 00:00:00 | 00:00:00 | 00:00:00 | |
| LY3OO-11 | 2026-09-05 12:32:49 | 54.89779 | 24.73517 | 0° | 0km/h | 14319m | 0.0m/s | -51.4°C | 1.3% | 0hPa | 0V | 00:00:00 | 00:00:00 | 00:00:00 | |
| LY3OO-11 | 2026-09-05 12:32:28 | 54.89779 | 24.73517 | 0° | 0km/h | 14319m | 0.0m/s | -52.3°C | 1.4% | 0hPa | 0V | 00:00:00 | 00:00:00 | 00:00:00 | |
| LY3OO-11 | 2026-09-05 12:32:08 | 54.89779 | 24.73517 | 0° | 0km/h | 14319m | 0.0m/s | -52.0°C | 1.5% | 0hPa | 0V | 00:00:00 | 00:00:00 | 00:00:00 | |
| LY3OO-11 | 2026-09-05 12:31:48 | 54.89779 | 24.73517 | 0° | 0km/h | 14319m | 0.0m/s | -51.5°C | 1.4% | 0hPa | 0V | 00:00:00 | 00:00:00 | 00:00:00 | |
| LY3OO-11 | 2026-09-05 12:31:26 | 54.89779 | 24.73517 | 0° | 0km/h | 14319m | 0.0m/s | -51.6°C | 1.4% | 0hPa | 0V | 00:00:00 | 00:00:00 | 00:00:00 | |
| LY3OO-11 | 2026-09-05 12:31:06 | 54.89779 | 24.73517 | 0° | 0km/h | 14319m | 0.0m/s | -51.6°C | 1.4% | 0hPa | 0V | 00:00:00 | 00:00:00 | 00:00:00 | |
| LY3OO-11 | 2026-09-05 12:30:45 | 54.89779 | 24.73517 | 0° | 0km/h | 14319m | 0.0m/s | -50.9°C | 1.4% | 0hPa | 0V | 00:00:00 | 00:00:00 | 00:00:00 | |
| LY3OO-11 | 2026-09-05 12:30:25 | 54.89779 | 24.73517 | 0° | 0km/h | 14319m | 0.0m/s | -50.6°C | 1.3% | 0hPa | 0V | 00:00:00 | 00:00:00 | 00:00:00 | |
| LY3OO-11 | 2026-09-05 12:30:05 | 54.89779 | 24.73517 | 0° | 0km/h | 14319m | 0.0m/s | -50.4°C | 1.3% | 0hPa | 0V | 00:00:00 | 00:00:00 | 00:00:00 | |
| LY3OO-11 | 2026-09-05 12:29:44 | 54.89779 | 24.73517 | 0° | 0km/h | 14319m | 0.0m/s | -50.1°C | 1.3% | 0hPa | 0V | 00:00:00 | 00:00:00 | 00:00:00 | |
| LY3OO-11 | 2026-09-05 12:29:24 | 54.89779 | 24.73517 | 0° | 0km/h | 14319m | 0.0m/s | -49.3°C | 1.3% | 0hPa | 0V | 00:00:00 | 00:00:00 | 00:00:00 | |
| LY3OO-11 | 2026-09-05 12:29:03 | 54.89779 | 24.73517 | 0° | 0km/h | 14319m | 0.0m/s | -49.2°C | 1.2% | 0hPa | 0V | 00:00:00 | 00:00:00 | 00:00:00 | |
| LY3OO-11 | 2026-09-05 12:28:42 | 54.89779 | 24.73517 | 0° | 0km/h | 14319m | 0.0m/s | -49.5°C | 1.3% | 0hPa | 0V | 00:00:00 | 00:00:00 | 00:00:00 | |
| LY3OO-11 | 2026-09-05 12:28:23 | 54.89779 | 24.73517 | 0° | 0km/h | 14319m | 0.0m/s | -49.8°C | 1.3% | 0hPa | 0V | 00:00:00 | 00:00:00 | 00:00:00 | |
| LY3OO-11 | 2026-09-05 12:28:01 | 54.89779 | 24.73517 | 0° | 0km/h | 14319m | 0.0m/s | -50.6°C | 1.3% | 0hPa | 0V | 00:00:00 | 00:00:00 | 00:00:00 | |
| LY3OO-11 | 2026-09-05 12:27:41 | 54.89779 | 24.73517 | 0° | 0km/h | 14319m | 0.0m/s | -51.2°C | 1.4% | 0hPa | 0V | 00:00:00 | 00:00:00 | 00:00:00 | |
| LY3OO-11 | 2026-09-05 12:27:21 | 54.89779 | 24.73517 | 0° | 0km/h | 14319m | 0.0m/s | -51.1°C | 1.4% | 0hPa | 0V | 00:00:00 | 00:00:00 | 00:00:00 | |
| LY3OO-11 | 2026-09-05 12:27:00 | 54.89779 | 24.73517 | 0° | 0km/h | 14319m | 0.0m/s | -50.4°C | 1.3% | 0hPa | 0V | 00:00:00 | 00:00:00 | 00:00:00 | |
| LY3OO-11 | 2026-09-05 12:26:40 | 54.89779 | 24.73517 | 0° | 0km/h | 14319m | 0.0m/s | -51.2°C | 1.4% | 0hPa | 0V | 00:00:00 | 00:00:00 | 00:00:00 | |
| LY3OO-11 | 2026-09-05 12:26:19 | 54.89779 | 24.73517 | 0° | 0km/h | 14319m | 0.0m/s | -50.9°C | 1.3% | 0hPa | 0V | 00:00:00 | 00:00:00 | 00:00:00 | |
| LY3OO-11 | 2026-09-05 12:25:58 | 54.89779 | 24.73517 | 0° | 0km/h | 14319m | 0.0m/s | -50.9°C | 1.3% | 0hPa | 0V | 00:00:00 | 00:00:00 | 00:00:00 | |
| LY3OO-11 | 2026-09-05 12:25:37 | 54.89779 | 24.73517 | 0° | 0km/h | 14319m | 0.0m/s | -50.3°C | 1.3% | 0hPa | 0V | 00:00:00 | 00:00:00 | 00:00:00 | |
| LY3OO-11 | 2026-09-05 12:25:17 | 54.89779 | 24.73517 | 0° | 0km/h | 14319m | 0.0m/s | -49.8°C | 1.3% | 0hPa | 0V | 00:00:00 | 00:00:00 | 00:00:00 | |
| LY3OO-11 | 2026-09-05 12:24:57 | 54.89779 | 24.73517 | 0° | 0km/h | 14319m | 0.0m/s | -49.3°C | 1.2% | 0hPa | 0V | 00:00:00 | 00:00:00 | 00:00:00 | |
| LY3OO-11 | 2026-09-05 12:24:37 | 54.89779 | 24.73517 | 0° | 0km/h | 14319m | 0.0m/s | -48.7°C | 1.2% | 0hPa | 0V | 00:00:00 | 00:00:00 | 00:00:00 | |
| LY3OO-11 | 2026-09-05 12:24:16 | 54.89779 | 24.73517 | 0° | 0km/h | 14319m | 0.0m/s | -48.8°C | 1.2% | 0hPa | 0V | 00:00:00 | 00:00:00 | 00:00:00 | |
| LY3OO-11 | 2026-09-05 12:23:56 | 54.89779 | 24.73517 | 0° | 0km/h | 14319m | 0.0m/s | -48.5°C | 1.1% | 0hPa | 0V | 00:00:00 | 00:00:00 | 00:00:00 | |
| LY3OO-11 | 2026-09-05 12:23:36 | 54.89779 | 24.73517 | 0° | 0km/h | 14319m | 0.0m/s | -49.2°C | 1.2% | 0hPa | 0V | 00:00:00 | 00:00:00 | 00:00:00 | |
| LY3OO-11 | 2026-09-05 12:23:15 | 54.89779 | 24.73517 | 0° | 0km/h | 14319m | 0.0m/s | -49.4°C | 1.2% | 0hPa | 0V | 00:00:00 | 00:00:00 | 00:00:00 | |
| LY3OO-11 | 2026-09-05 12:22:55 | 54.89779 | 24.73517 | 0° | 0km/h | 14319m | 0.0m/s | -49.6°C | 1.2% | 0hPa | 0V | 00:00:00 | 00:00:00 | 00:00:00 | |
| LY3OO-11 | 2026-09-05 12:22:34 | 54.89779 | 24.73517 | 0° | 0km/h | 14319m | 0.0m/s | -49.5°C | 1.2% | 0hPa | 0V | 00:00:00 | 00:00:00 | 00:00:00 | |
| LY3OO-11 | 2026-09-05 12:22:14 | 54.89779 | 24.73517 | 0° | 0km/h | 14319m | 0.0m/s | -49.4°C | 3.4% | 0hPa | 0V | 00:00:00 | 00:00:00 | 00:00:00 | |
| LY3OO-11 | 2026-09-05 12:21:51 | 56.54870 | 32.31884 | 0° | 0km/h | 210m | 0.0m/s | -50.0°C | 3.4% | 0hPa | 0V | 00:00:00 | 00:00:00 | 00:00:00 | |
| LY3OO-11 | 2026-09-05 12:21:30 | 56.54870 | 32.31884 | 0° | 0km/h | 210m | 0.0m/s | -50.3°C | 3.7% | 0hPa | 0V | 00:00:00 | 00:00:00 | 00:00:00 | |
| LY3OO-11 | 2026-09-05 12:21:10 | 54.89779 | 24.73517 | 0° | 0km/h | 14319m | 0.0m/s | -49.3°C | 1.2% | 0hPa | 0V | 00:00:00 | 00:00:00 | 00:00:00 | |
| LY3OO-11 | 2026-09-05 12:20:49 | 54.89779 | 24.73517 | 0° | 0km/h | 14319m | 0.0m/s | -48.9°C | 1.2% | 0hPa | 0V | 00:00:00 | 00:00:00 | 00:00:00 | |
| LY3OO-11 | 2026-09-05 12:20:28 | 54.89779 | 24.73517 | 0° | 0km/h | 14319m | 0.0m/s | -48.4°C | 1.2% | 0hPa | 0V | 00:00:00 | 00:00:00 | 00:00:00 | |
| LY3OO-11 | 2026-09-05 12:20:08 | 54.89779 | 24.73517 | 0° | 0km/h | 14319m | 0.0m/s | -47.8°C | 1.1% | 0hPa | 0V | 00:00:00 | 00:00:00 | 00:00:00 | |
| LY3OO-11 | 2026-09-05 12:19:47 | 54.89779 | 24.73517 | 0° | 0km/h | 14319m | 0.0m/s | -48.2°C | 1.2% | 0hPa | 0V | 00:00:00 | 00:00:00 | 00:00:00 | |
| LY3OO-11 | 2026-09-05 12:19:27 | 54.89779 | 24.73517 | 0° | 0km/h | 14319m | 0.0m/s | -47.5°C | 1.1% | 0hPa | 0V | 00:00:00 | 00:00:00 | 00:00:00 | |
| LY3OO-11 | 2026-09-05 12:19:06 | 54.89779 | 24.73517 | 0° | 0km/h | 14319m | 0.0m/s | -48.1°C | 1.2% | 0hPa | 0V | 00:00:00 | 00:00:00 | 00:00:00 | |
| LY3OO-11 | 2026-09-05 12:18:46 | 54.89779 | 24.73517 | 0° | 0km/h | 14319m | 0.0m/s | -47.6°C | 1.1% | 0hPa | 0V | 00:00:00 | 00:00:00 | 00:00:00 | |
| LY3OO-11 | 2026-09-05 12:18:26 | 54.89779 | 24.73517 | 0° | 0km/h | 14319m | 0.0m/s | -47.7°C | 1.1% | 0hPa | 0V | 00:00:00 | 00:00:00 | 00:00:00 | |
| LY3OO-11 | 2026-09-05 12:18:06 | 54.89779 | 24.73517 | 0° | 0km/h | 14319m | 0.0m/s | -48.7°C | 1.2% | 0hPa | 0V | 00:00:00 | 00:00:00 | 00:00:00 | |
| LY3OO-11 | 2026-09-05 12:17:45 | 54.89779 | 24.73517 | 0° | 0km/h | 14319m | 0.0m/s | -47.7°C | 1.1% | 0hPa | 0V | 00:00:00 | 00:00:00 | 00:00:00 | |
| LY3OO-11 | 2026-09-05 12:17:24 | 54.89779 | 24.73517 | 0° | 0km/h | 14319m | 0.0m/s | -48.1°C | 1.2% | 0hPa | 0V | 00:00:00 | 00:00:00 | 00:00:00 | |
| LY3OO-11 | 2026-09-05 12:17:04 | 54.89779 | 24.73517 | 0° | 0km/h | 14319m | 0.0m/s | -47.6°C | 1.2% | 0hPa | 0V | 00:00:00 | 00:00:00 | 00:00:00 | |
| LY3OO-11 | 2026-09-05 12:16:44 | 54.89779 | 24.73517 | 0° | 0km/h | 14319m | 0.0m/s | -47.9°C | 1.2% | 0hPa | 0V | 00:00:00 | 00:00:00 | 00:00:00 | |
| LY3OO-11 | 2026-09-05 12:16:24 | 54.89779 | 24.73517 | 0° | 0km/h | 14319m | 0.0m/s | -48.2°C | 1.2% | 0hPa | 0V | 00:00:00 | 00:00:00 | 00:00:00 | |
| LY3OO-11 | 2026-09-05 12:16:03 | 54.93040 | 18.48632 | 0° | 0km/h | 96m | 0.0m/s | -47.6°C | 3.4% | 0hPa | 0V | 00:00:00 | 00:00:00 | 00:00:00 | |
| LY3OO-11 | 2026-09-05 12:15:43 | 54.93040 | 18.48632 | 0° | 0km/h | 96m | 0.0m/s | -47.0°C | 3.3% | 0hPa | 0V | 00:00:00 | 00:00:00 | 00:00:00 | |
| LY3OO-11 | 2026-09-05 12:15:22 | 54.93040 | 18.48632 | 0° | 0km/h | 96m | 0.0m/s | -46.5°C | 3.1% | 0hPa | 0V | 00:00:00 | 00:00:00 | 00:00:00 | |
| LY3OO-11 | 2026-09-05 12:15:01 | 54.89779 | 24.73517 | 0° | 0km/h | 14319m | 0.0m/s | -47.5°C | 1.2% | 0hPa | 0V | 00:00:00 | 00:00:00 | 00:00:00 | |
| LY3OO-11 | 2026-09-05 12:14:41 | 54.89779 | 24.73517 | 0° | 0km/h | 14319m | 0.0m/s | -47.3°C | 1.2% | 0hPa | 0V | 00:00:00 | 00:00:00 | 00:00:00 | |
| LY3OO-11 | 2026-09-05 12:14:20 | 54.89779 | 24.73517 | 0° | 0km/h | 14319m | 0.0m/s | -46.7°C | 1.2% | 0hPa | 0V | 00:00:00 | 00:00:00 | 00:00:00 | |
| LY3OO-11 | 2026-09-05 12:13:59 | 54.89779 | 24.73517 | 0° | 0km/h | 14319m | 0.0m/s | -46.9°C | 1.2% | 0hPa | 0V | 00:00:00 | 00:00:00 | 00:00:00 | |
| LY3OO-11 | 2026-09-05 12:13:39 | 54.89779 | 24.73517 | 0° | 0km/h | 14319m | 0.0m/s | -46.4°C | 1.2% | 0hPa | 0V | 00:00:00 | 00:00:00 | 00:00:00 | |
| LY3OO-11 | 2026-09-05 12:13:19 | 54.89779 | 24.73517 | 0° | 0km/h | 14319m | 0.0m/s | -45.9°C | 1.1% | 0hPa | 0V | 00:00:00 | 00:00:00 | 00:00:00 | |
| LY3OO-11 | 2026-09-05 12:12:58 | 54.89774 | 24.73892 | 0° | 0km/h | 14385m | 0.0m/s | -45.6°C | 1.1% | 0hPa | 0V | 00:00:00 | 00:00:00 | 00:00:00 | |
| LY3OO-11 | 2026-09-05 12:12:38 | 54.89774 | 24.73892 | 0° | 0km/h | 14385m | 0.0m/s | -45.9°C | 1.1% | 0hPa | 0V | 00:00:00 | 00:00:00 | 00:00:00 | |
| LY3OO-11 | 2026-09-05 12:12:17 | 54.89774 | 24.73892 | 0° | 0km/h | 14385m | 0.0m/s | -46.7°C | 1.1% | 0hPa | 0V | 00:00:00 | 00:00:00 | 00:00:00 | |
| LY3OO-11 | 2026-09-05 12:11:57 | 54.89780 | 24.73482 | 90° | 80km/h | 14313m | 5.9m/s | -46.9°C | 1.2% | 0hPa | 0V | 00:00:00 | 00:00:00 | 00:00:00 | |
| LY3OO-11 | 2026-09-05 12:11:36 | 54.89714 | 24.72794 | 79° | 82km/h | 14186m | 5.8m/s | -47.0°C | 1.2% | 0hPa | 0V | 00:00:00 | 00:00:00 | 00:00:00 | |
| LY3OO-11 | 2026-09-05 12:11:16 | 54.89643 | 24.72143 | 80° | 80km/h | 14055m | 4.4m/s | -47.2°C | 1.2% | 0hPa | 0V | 00:00:00 | 00:00:00 | 00:00:00 | |
| LY3OO-11 | 2026-09-05 12:10:54 | 54.89574 | 24.71435 | 85° | 84km/h | 13916m | 5.4m/s | -46.8°C | 1.1% | 0hPa | 0V | 00:00:00 | 00:00:00 | 00:00:00 | |
| LY3OO-11 | 2026-09-05 12:10:34 | 54.89518 | 24.70716 | 78° | 93km/h | 13791m | 7.0m/s | -47.1°C | 1.2% | 0hPa | 0V | 00:00:00 | 00:00:00 | 00:00:00 | |
| LY3OO-11 | 2026-09-05 12:10:14 | 54.89416 | 24.69947 | 74° | 91km/h | 13676m | 6.1m/s | -47.3°C | 1.3% | 0hPa | 0V | 00:00:00 | 00:00:00 | 00:00:00 | |
| LY3OO-11 | 2026-09-05 12:09:54 | 54.89289 | 24.69111 | 78° | 99km/h | 13555m | 8.3m/s | -47.2°C | 1.3% | 0hPa | 0V | 00:00:00 | 00:00:00 | 00:00:00 | |
| LY3OO-11 | 2026-09-05 12:09:33 | 54.89137 | 24.68225 | 72° | 102km/h | 13436m | 5.4m/s | -46.9°C | 1.3% | 0hPa | 0V | 00:00:00 | 00:00:00 | 00:00:00 | |
| LY3OO-11 | 2026-09-05 12:09:12 | 54.88968 | 24.67395 | 69° | 93km/h | 13321m | 8.0m/s | -47.3°C | 1.3% | 0hPa | 0V | 00:00:00 | 00:00:00 | 00:00:00 | |
| LY3OO-11 | 2026-09-05 12:08:51 | 54.88816 | 24.66653 | 75° | 75km/h | 13197m | 6.4m/s | -47.4°C | 1.3% | 0hPa | 0V | 00:00:00 | 00:00:00 | 00:00:00 | |
| LY3OO-11 | 2026-09-05 12:08:31 | 54.88783 | 24.65995 | 93° | 77km/h | 13069m | 8.0m/s | -47.1°C | 1.4% | 0hPa | 0V | 00:00:00 | 00:00:00 | 00:00:00 | |
| LY3OO-11 | 2026-09-05 12:08:09 | 54.88782 | 24.65199 | 88° | 91km/h | 12931m | 7.4m/s | -46.3°C | 1.3% | 0hPa | 0V | 00:00:00 | 00:00:00 | 00:00:00 | |
| LY3OO-11 | 2026-09-05 12:07:48 | 54.88720 | 24.64392 | 76° | 91km/h | 12796m | 7.1m/s | -45.8°C | 1.3% | 0hPa | 0V | 00:00:00 | 00:00:00 | 00:00:00 | |
| LY3OO-11 | 2026-09-05 12:07:28 | 54.88613 | 24.63666 | 73° | 86km/h | 12659m | 5.9m/s | -45.7°C | 1.3% | 0hPa | 0V | 00:00:00 | 00:00:00 | 00:00:00 | |
| LY3OO-11 | 2026-09-05 12:07:08 | 54.88482 | 24.62982 | 77° | 89km/h | 12530m | 7.2m/s | -45.4°C | 1.3% | 0hPa | 0V | 00:00:00 | 00:00:00 | 00:00:00 | |
| LY3OO-11 | 2026-09-05 12:06:48 | 54.88395 | 24.62290 | 84° | 71km/h | 12387m | 4.9m/s | -44.7°C | 1.3% | 0hPa | 0V | 00:00:00 | 00:00:00 | 00:00:00 | |
| LY3OO-11 | 2026-09-05 12:06:27 | 54.88334 | 24.61597 | 81° | 84km/h | 12260m | 7.0m/s | -44.2°C | 1.3% | 0hPa | 0V | 00:00:00 | 00:00:00 | 00:00:00 | |
| LY3OO-11 | 2026-09-05 12:06:07 | 54.88323 | 24.60886 | 90° | 84km/h | 12134m | 4.9m/s | -43.7°C | 1.2% | 0hPa | 0V | 00:00:00 | 00:00:00 | 00:00:00 | |
| LY3OO-11 | 2026-09-05 12:05:46 | 54.88330 | 24.60063 | 97° | 95km/h | 12011m | 7.0m/s | -44.8°C | 1.3% | 0hPa | 0V | 00:00:00 | 00:00:00 | 00:00:00 | |
| LY3OO-11 | 2026-09-05 12:05:26 | 54.88263 | 24.59285 | 83° | 89km/h | 11880m | 6.1m/s | -44.4°C | 1.3% | 0hPa | 0V | 00:00:00 | 00:00:00 | 00:00:00 | |
| LY3OO-11 | 2026-09-05 12:05:06 | 54.88179 | 24.58463 | 80° | 95km/h | 11767m | 6.1m/s | -44.7°C | 1.3% | 0hPa | 0V | 00:00:00 | 00:00:00 | 00:00:00 | |
| LY3OO-11 | 2026-09-05 12:04:46 | 54.88096 | 24.57711 | 83° | 84km/h | 11669m | 6.6m/s | -44.3°C | 1.3% | 0hPa | 0V | 00:00:00 | 00:00:00 | 00:00:00 | |
| LY3OO-11 | 2026-09-05 12:04:24 | 54.88044 | 24.56916 | 86° | 95km/h | 11565m | 4.1m/s | -43.9°C | 1.3% | 0hPa | 0V | 00:00:00 | 00:00:00 | 00:00:00 | |
| LY3OO-11 | 2026-09-05 12:04:04 | 54.88026 | 24.56073 | 85° | 89km/h | 11428m | 6.9m/s | -44.3°C | 1.4% | 0hPa | 0V | 00:00:00 | 00:00:00 | 00:00:00 | |
| LY3OO-11 | 2026-09-05 12:03:42 | 54.87951 | 24.55246 | 86° | 84km/h | 11294m | 4.6m/s | -44.2°C | 1.4% | 0hPa | 0V | 00:00:00 | 00:00:00 | 00:00:00 | |
| LY3OO-11 | 2026-09-05 12:03:22 | 54.87832 | 24.54481 | 73° | 95km/h | 11174m | 4.7m/s | -44.2°C | 1.6% | 0hPa | 0V | 00:00:00 | 00:00:00 | 00:00:00 | |
| LY3OO-11 | 2026-09-05 12:03:00 | 54.87685 | 24.53681 | 72° | 91km/h | 11072m | 5.1m/s | -44.6°C | 1.7% | 0hPa | 0V | 00:00:00 | 00:00:00 | 00:00:00 | |
| LY3OO-11 | 2026-09-05 12:02:40 | 54.87522 | 24.52875 | 80° | 97km/h | 10970m | 4.9m/s | -44.5°C | 2.0% | 0hPa | 0V | 00:00:00 | 00:00:00 | 00:00:00 | |
| LY3OO-11 | 2026-09-05 12:02:18 | 54.87421 | 24.51949 | 80° | 97km/h | 10848m | 3.8m/s | -45.1°C | 2.1% | 0hPa | 0V | 00:00:00 | 00:00:00 | 00:00:00 | |
| LY3OO-11 | 2026-09-05 12:01:57 | 54.87267 | 24.51059 | 73° | 99km/h | 10761m | 5.4m/s | -46.2°C | 2.4% | 0hPa | 0V | 00:00:00 | 00:00:00 | 00:00:00 | |
| LY3OO-11 | 2026-09-05 12:01:37 | 54.87148 | 24.50266 | 80° | 100km/h | 10670m | 10.3m/s | -46.5°C | 2.8% | 0hPa | 0V | 00:00:00 | 00:00:00 | 00:00:00 | |
| LY3OO-11 | 2026-09-05 12:01:17 | 54.87043 | 24.49419 | 76° | 100km/h | 10557m | 3.7m/s | -46.3°C | 3.5% | 0hPa | 0V | 00:00:00 | 00:00:00 | 00:00:00 | |
| LY3OO-11 | 2026-09-05 12:00:57 | 54.86890 | 24.48469 | 76° | 104km/h | 10437m | 4.7m/s | -47.4°C | 4.0% | 0hPa | 0V | 00:00:00 | 00:00:00 | 00:00:00 | |
| LY3OO-11 | 2026-09-05 12:00:36 | 54.86783 | 24.47587 | 80° | 104km/h | 10335m | 5.8m/s | -47.5°C | 4.2% | 0hPa | 0V | 00:00:00 | 00:00:00 | 00:00:00 | |
| LY3OO-11 | 2026-09-05 12:00:15 | 54.86682 | 24.46630 | 80° | 106km/h | 10220m | 4.8m/s | -48.1°C | 6.0% | 0hPa | 0V | 00:00:00 | 00:00:00 | 00:00:00 | |
| LY3OO-11 | 2026-09-05 11:59:55 | 54.86558 | 24.45707 | 81° | 106km/h | 10103m | 5.2m/s | -48.6°C | 7.2% | 0hPa | 0V | 00:00:00 | 00:00:00 | 00:00:00 | |
| LY3OO-11 | 2026-09-05 11:59:34 | 54.86480 | 24.44798 | 83° | 110km/h | 10002m | 6.0m/s | -48.4°C | 7.8% | 0hPa | 0V | 00:00:00 | 00:00:00 | 00:00:00 | |
| LY3OO-11 | 2026-09-05 11:59:13 | 54.86369 | 24.43764 | 84° | 108km/h | 9871m | 5.6m/s | -48.4°C | 9.4% | 0hPa | 0V | 00:00:00 | 00:00:00 | 00:00:00 | |
| LY3OO-11 | 2026-09-05 11:58:53 | 54.86296 | 24.42887 | 81° | 104km/h | 9757m | 4.5m/s | -48.1°C | 10.0% | 0hPa | 0V | 00:00:00 | 00:00:00 | 00:00:00 | |
| LY3OO-11 | 2026-09-05 11:58:32 | 54.86202 | 24.41922 | 76° | 110km/h | 9649m | 4.1m/s | -48.1°C | 11.0% | 0hPa | 0V | 00:00:00 | 00:00:00 | 00:00:00 | |
| LY3OO-11 | 2026-09-05 11:58:11 | 54.86108 | 24.40935 | 81° | 102km/h | 9535m | 6.2m/s | -47.9°C | 13.9% | 0hPa | 0V | 00:00:00 | 00:00:00 | 00:00:00 | |
| LY3OO-11 | 2026-09-05 11:57:52 | 54.86034 | 24.40077 | 87° | 82km/h | 9431m | 4.3m/s | -47.8°C | 17.6% | 0hPa | 0V | 00:00:00 | 00:00:00 | 00:00:00 | |
| LY3OO-11 | 2026-09-05 11:57:30 | 54.85993 | 24.39265 | 88° | 89km/h | 9303m | 6.4m/s | -47.6°C | 17.1% | 0hPa | 0V | 00:00:00 | 00:00:00 | 00:00:00 | |
| LY3OO-11 | 2026-09-05 11:57:10 | 54.85932 | 24.38474 | 82° | 86km/h | 9201m | 5.2m/s | -47.3°C | 19.1% | 0hPa | 0V | 00:00:00 | 00:00:00 | 00:00:00 | |
| LY3OO-11 | 2026-09-05 11:56:50 | 54.85895 | 24.37691 | 90° | 86km/h | 9094m | 4.2m/s | -46.9°C | 19.8% | 0hPa | 0V | 00:00:00 | 00:00:00 | 00:00:00 | |
| LY3OO-11 | 2026-09-05 11:56:29 | 54.85841 | 24.36895 | 92° | 86km/h | 8981m | 6.5m/s | -46.6°C | 20.4% | 0hPa | 0V | 00:00:00 | 00:00:00 | 00:00:00 | |
| LY3OO-11 | 2026-09-05 11:56:09 | 54.85819 | 24.36089 | 96° | 91km/h | 8874m | 3.5m/s | -46.0°C | 22.7% | 0hPa | 0V | 00:00:00 | 00:00:00 | 00:00:00 | |
| LY3OO-11 | 2026-09-05 11:55:49 | 54.85785 | 24.35281 | 84° | 88km/h | 8766m | 5.1m/s | -45.1°C | 26.6% | 0hPa | 0V | 00:00:00 | 00:00:00 | 00:00:00 | |
| LY3OO-11 | 2026-09-05 11:55:29 | 54.85794 | 24.34458 | 89° | 93km/h | 8652m | 4.0m/s | -45.3°C | 52.8% | 0hPa | 0V | 00:00:00 | 00:00:00 | 00:00:00 | |
| LY3OO-11 | 2026-09-05 11:55:08 | 54.85810 | 24.33706 | 104° | 82km/h | 8520m | 4.4m/s | -44.3°C | 62.8% | 0hPa | 0V | 00:00:00 | 00:00:00 | 00:00:00 | |
| LY3OO-11 | 2026-09-05 11:54:48 | 54.85828 | 24.32952 | 90° | 91km/h | 8408m | 4.9m/s | -43.3°C | 62.6% | 0hPa | 0V | 00:00:00 | 00:00:00 | 00:00:00 | |
| LY3OO-11 | 2026-09-05 11:54:27 | 54.85816 | 24.32150 | 100° | 73km/h | 8297m | 9.5m/s | -42.4°C | 51.6% | 0hPa | 0V | 00:00:00 | 00:00:00 | 00:00:00 | |
| LY3OO-11 | 2026-09-05 11:54:07 | 54.85806 | 24.31458 | 93° | 86km/h | 8179m | 6.6m/s | -41.3°C | 48.0% | 0hPa | 0V | 00:00:00 | 00:00:00 | 00:00:00 | |
| LY3OO-11 | 2026-09-05 11:53:47 | 54.85878 | 24.29620 | 0° | 0km/h | 7843m | 0.0m/s | -40.2°C | 43.4% | 0hPa | 0V | 00:00:00 | 00:00:00 | 00:00:00 | |
| LY3OO-11 | 2026-09-05 11:53:27 | 54.85878 | 24.29620 | 0° | 0km/h | 7843m | 0.0m/s | -39.1°C | 43.7% | 0hPa | 0V | 00:00:00 | 00:00:00 | 00:00:00 | |
| LY3OO-11 | 2026-09-05 11:53:06 | 54.85894 | 24.29423 | 99° | 91km/h | 7802m | 8.2m/s | -38.0°C | 53.0% | 0hPa | 0V | 00:00:00 | 00:00:00 | 00:00:00 | |
| LY3OO-11 | 2026-09-05 11:52:45 | 54.85972 | 24.28645 | 101° | 73km/h | 7678m | 6.5m/s | -37.1°C | 57.7% | 0hPa | 0V | 00:00:00 | 00:00:00 | 00:00:00 | |
| LY3OO-11 | 2026-09-05 11:52:24 | 54.86074 | 24.27869 | 97° | 97km/h | 7560m | 7.9m/s | -36.2°C | 64.5% | 0hPa | 0V | 00:00:00 | 00:00:00 | 00:00:00 | |
| LY3OO-11 | 2026-09-05 11:52:03 | 54.86189 | 24.27053 | 94° | 100km/h | 7438m | 5.9m/s | -35.2°C | 68.4% | 0hPa | 0V | 00:00:00 | 00:00:00 | 00:00:00 | |
| LY3OO-11 | 2026-09-05 11:51:42 | 54.86249 | 24.26279 | 94° | 93km/h | 7313m | 4.1m/s | -34.1°C | 68.1% | 0hPa | 0V | 00:00:00 | 00:00:00 | 00:00:00 | |
| LY3OO-11 | 2026-09-05 11:51:22 | 54.86336 | 24.25539 | 110° | 77km/h | 7207m | 7.9m/s | -33.4°C | 73.0% | 0hPa | 0V | 00:00:00 | 00:00:00 | 00:00:00 | |
| LY3OO-11 | 2026-09-05 11:51:01 | 54.86446 | 24.24792 | 111° | 78km/h | 7094m | 4.6m/s | -32.5°C | 73.7% | 0hPa | 0V | 00:00:00 | 00:00:00 | 00:00:00 | |
| LY3OO-11 | 2026-09-05 11:50:42 | 54.86547 | 24.24068 | 106° | 78km/h | 6986m | 5.3m/s | -31.7°C | 73.4% | 0hPa | 0V | 00:00:00 | 00:00:00 | 00:00:00 | |
| LY3OO-11 | 2026-09-05 11:50:20 | 54.86640 | 24.23289 | 91° | 88km/h | 6873m | 5.1m/s | -30.8°C | 74.2% | 0hPa | 0V | 00:00:00 | 00:00:00 | 00:00:00 | |
| LY3OO-11 | 2026-09-05 11:50:00 | 54.86682 | 24.22461 | 98° | 102km/h | 6754m | 7.4m/s | -30.0°C | 68.2% | 0hPa | 0V | 00:00:00 | 00:00:00 | 00:00:00 | |
| LY3OO-11 | 2026-09-05 11:49:39 | 54.86747 | 24.21598 | 90° | 91km/h | 6639m | 5.4m/s | -29.6°C | 51.5% | 0hPa | 0V | 00:00:00 | 00:00:00 | 00:00:00 | |
| LY3OO-11 | 2026-09-05 11:49:19 | 54.86764 | 24.20736 | 99° | 95km/h | 6514m | 7.3m/s | -28.1°C | 29.3% | 0hPa | 0V | 00:00:00 | 00:00:00 | 00:00:00 | |
| LY3OO-11 | 2026-09-05 11:48:58 | 54.86779 | 24.19912 | 94° | 78km/h | 6392m | 6.6m/s | -27.1°C | 21.7% | 0hPa | 0V | 00:00:00 | 00:00:00 | 00:00:00 | |
| LY3OO-11 | 2026-09-05 11:48:39 | 54.86815 | 24.19123 | 102° | 82km/h | 6282m | 5.5m/s | -26.2°C | 12.9% | 0hPa | 0V | 00:00:00 | 00:00:00 | 00:00:00 | |
| LY3OO-11 | 2026-09-05 11:48:17 | 54.86840 | 24.18377 | 100° | 69km/h | 6168m | 8.6m/s | -25.4°C | 11.3% | 0hPa | 0V | 00:00:00 | 00:00:00 | 00:00:00 | |
| LY3OO-11 | 2026-09-05 11:47:56 | 54.86820 | 24.17606 | 99° | 93km/h | 6046m | 5.7m/s | -24.6°C | 13.4% | 0hPa | 0V | 00:00:00 | 00:00:00 | 00:00:00 | |
| LY3OO-11 | 2026-09-05 11:47:35 | 54.86867 | 24.16860 | 103° | 93km/h | 5926m | 4.8m/s | -23.6°C | 13.5% | 0hPa | 0V | 00:00:00 | 00:00:00 | 00:00:00 | |
| LY3OO-11 | 2026-09-05 11:47:14 | 54.86928 | 24.16060 | 107° | 78km/h | 5809m | 6.0m/s | -22.5°C | 13.0% | 0hPa | 0V | 00:00:00 | 00:00:00 | 00:00:00 | |
| LY3OO-11 | 2026-09-05 11:46:53 | 54.86994 | 24.15203 | 95° | 100km/h | 5689m | 5.7m/s | -21.9°C | 19.9% | 0hPa | 0V | 00:00:00 | 00:00:00 | 00:00:00 | |
| LY3OO-11 | 2026-09-05 11:46:32 | 54.87046 | 24.14392 | 97° | 77km/h | 5568m | 6.8m/s | -21.0°C | 17.6% | 0hPa | 0V | 00:00:00 | 00:00:00 | 00:00:00 | |
| LY3OO-11 | 2026-09-05 11:46:11 | 54.87070 | 24.13623 | 84° | 75km/h | 5439m | 7.4m/s | -20.0°C | 16.3% | 0hPa | 0V | 00:00:00 | 00:00:00 | 00:00:00 | |
| LY3OO-11 | 2026-09-05 11:45:51 | 54.87101 | 24.12887 | 104° | 75km/h | 5328m | 5.8m/s | -19.3°C | 21.4% | 0hPa | 0V | 00:00:00 | 00:00:00 | 00:00:00 | |
| LY3OO-11 | 2026-09-05 11:45:31 | 54.87135 | 24.12174 | 101° | 82km/h | 5212m | 5.4m/s | -18.4°C | 29.3% | 0hPa | 0V | 00:00:00 | 00:00:00 | 00:00:00 | |
| LY3OO-11 | 2026-09-05 11:45:10 | 54.87169 | 24.11514 | 96° | 57km/h | 5088m | 7.0m/s | -17.7°C | 43.1% | 0hPa | 0V | 00:00:00 | 00:00:00 | 00:00:00 | |
| LY3OO-11 | 2026-09-05 11:44:49 | 54.87211 | 24.10917 | 86° | 69km/h | 4962m | 4.8m/s | -17.0°C | 96.6% | 0hPa | 0V | 00:00:00 | 00:00:00 | 00:00:00 | |
| LY3OO-11 | 2026-09-05 11:44:28 | 54.87239 | 24.10244 | 101° | 64km/h | 4842m | 7.4m/s | -16.2°C | 67.0% | 0hPa | 0V | 00:00:00 | 00:00:00 | 00:00:00 | |
| LY3OO-11 | 2026-09-05 11:44:08 | 54.87283 | 24.09605 | 103° | 82km/h | 4730m | 5.2m/s | -15.2°C | 39.6% | 0hPa | 0V | 00:00:00 | 00:00:00 | 00:00:00 | |
| LY3OO-11 | 2026-09-05 11:43:48 | 54.87336 | 24.08971 | 110° | 62km/h | 4607m | 5.1m/s | -14.1°C | 37.2% | 0hPa | 0V | 00:00:00 | 00:00:00 | 00:00:00 | |
| LY3OO-11 | 2026-09-05 11:43:27 | 54.87395 | 24.08287 | 99° | 82km/h | 4491m | 4.5m/s | -13.4°C | 50.8% | 0hPa | 0V | 00:00:00 | 00:00:00 | 00:00:00 | |
| LY3OO-11 | 2026-09-05 11:43:08 | 54.87414 | 24.07688 | 88° | 71km/h | 4373m | 6.0m/s | -12.7°C | 50.3% | 0hPa | 0V | 00:00:00 | 00:00:00 | 00:00:00 | |
| LY3OO-11 | 2026-09-05 11:42:45 | 54.87456 | 24.06997 | 93° | 69km/h | 4262m | 6.9m/s | -11.8°C | 43.7% | 0hPa | 0V | 00:00:00 | 00:00:00 | 00:00:00 | |
| LY3OO-11 | 2026-09-05 11:42:04 | 54.87499 | 24.05798 | 90° | 58km/h | 4041m | 5.0m/s | -10.5°C | 57.1% | 0hPa | 0V | 00:00:00 | 00:00:00 | 00:00:00 | |
| LY3OO-11 | 2026-09-05 11:41:44 | 54.87504 | 24.05179 | 102° | 73km/h | 3924m | 6.7m/s | -9.5°C | 57.6% | 0hPa | 0V | 00:00:00 | 00:00:00 | 00:00:00 | |
| LY3OO-11 | 2026-09-05 11:41:24 | 54.87511 | 24.04510 | 95° | 77km/h | 3803m | 6.2m/s | -8.6°C | 52.7% | 0hPa | 0V | 00:00:00 | 00:00:00 | 00:00:00 | |
| LY3OO-11 | 2026-09-05 11:41:02 | 54.87543 | 24.03834 | 106° | 69km/h | 3666m | 5.9m/s | -7.4°C | 46.9% | 0hPa | 0V | 00:00:00 | 00:00:00 | 00:00:00 | |
| LY3OO-11 | 2026-09-05 11:40:41 | 54.87566 | 24.03169 | 100° | 66km/h | 3545m | 5.1m/s | -6.9°C | 51.5% | 0hPa | 0V | 00:00:00 | 00:00:00 | 00:00:00 | |
| LY3OO-11 | 2026-09-05 11:40:20 | 54.87612 | 24.02495 | 91° | 71km/h | 3421m | 5.2m/s | -6.0°C | 66.9% | 0hPa | 0V | 00:00:00 | 00:00:00 | 00:00:00 | |
| LY3OO-11 | 2026-09-05 11:39:59 | 54.87653 | 24.01861 | 91° | 68km/h | 3296m | 6.2m/s | -5.3°C | 65.8% | 0hPa | 0V | 00:00:00 | 00:00:00 | 00:00:00 | |
| LY3OO-11 | 2026-09-05 11:39:39 | 54.87701 | 24.01231 | 95° | 75km/h | 3175m | 7.6m/s | -4.3°C | 56.1% | 0hPa | 0V | 00:00:00 | 00:00:00 | 00:00:00 | |
| LY3OO-11 | 2026-09-05 11:39:18 | 54.87729 | 24.00547 | 93° | 69km/h | 3053m | 7.3m/s | -3.5°C | 51.1% | 0hPa | 0V | 00:00:00 | 00:00:00 | 00:00:00 | |
| LY3OO-11 | 2026-09-05 11:38:56 | 54.87766 | 23.99856 | 99° | 71km/h | 2939m | 5.2m/s | -2.9°C | 53.7% | 0hPa | 0V | 00:00:00 | 00:00:00 | 00:00:00 | |
| LY3OO-11 | 2026-09-05 11:38:36 | 54.87823 | 23.99212 | 92° | 71km/h | 2835m | 5.7m/s | -2.4°C | 47.6% | 0hPa | 0V | 00:00:00 | 00:00:00 | 00:00:00 | |
| LY3OO-11 | 2026-09-05 11:38:16 | 54.87872 | 23.98603 | 108° | 71km/h | 2726m | 5.3m/s | -1.4°C | 44.7% | 0hPa | 0V | 00:00:00 | 00:00:00 | 00:00:00 | |
| LY3OO-11 | 2026-09-05 11:37:55 | 54.87959 | 23.97884 | 100° | 71km/h | 2609m | 5.8m/s | -0.6°C | 40.1% | 0hPa | 0V | 00:00:00 | 00:00:00 | 00:00:00 | |
| LY3OO-11 | 2026-09-05 11:37:35 | 54.88027 | 23.97223 | 113° | 77km/h | 2491m | 5.8m/s | -0.0°C | 46.4% | 0hPa | 0V | 00:00:00 | 00:00:00 | 00:00:00 | |
| LY3OO-11 | 2026-09-05 11:37:14 | 54.88118 | 23.96548 | 108° | 69km/h | 2380m | 6.2m/s | 0.9°C | 47.9% | 0hPa | 0V | 00:00:00 | 00:00:00 | 00:00:00 | |
| LY3OO-11 | 2026-09-05 11:36:53 | 54.88184 | 23.95907 | 97° | 66km/h | 2268m | 6.3m/s | 1.4°C | 58.1% | 0hPa | 0V | 00:00:00 | 00:00:00 | 00:00:00 | |
| LY3OO-11 | 2026-09-05 11:36:32 | 54.88244 | 23.95194 | 94° | 84km/h | 2149m | 4.5m/s | 1.7°C | 79.3% | 0hPa | 0V | 00:00:00 | 00:00:00 | 00:00:00 | |
| LY3OO-11 | 2026-09-05 11:36:12 | 54.88314 | 23.94456 | 96° | 97km/h | 2042m | 5.7m/s | 2.3°C | 79.8% | 0hPa | 0V | 00:00:00 | 00:00:00 | 00:00:00 | |
| LY3OO-11 | 2026-09-05 11:35:52 | 54.88379 | 23.93691 | 104° | 93km/h | 1927m | 5.1m/s | 2.9°C | 81.6% | 0hPa | 0V | 00:00:00 | 00:00:00 | 00:00:00 | |
| LY3OO-11 | 2026-09-05 11:35:32 | 54.88431 | 23.92956 | 100° | 80km/h | 1811m | 5.6m/s | 3.7°C | 85.0% | 0hPa | 0V | 00:00:00 | 00:00:00 | 00:00:00 | |
| LY3OO-11 | 2026-09-05 11:35:10 | 54.88465 | 23.92186 | 99° | 78km/h | 1688m | 4.7m/s | 4.3°C | 86.2% | 0hPa | 0V | 00:00:00 | 00:00:00 | 00:00:00 | |
| LY3OO-11 | 2026-09-05 11:34:49 | 54.88524 | 23.91452 | 102° | 78km/h | 1566m | 6.6m/s | 5.1°C | 86.4% | 0hPa | 0V | 00:00:00 | 00:00:00 | 00:00:00 | |
| LY3OO-11 | 2026-09-05 11:34:29 | 54.88542 | 23.90719 | 86° | 75km/h | 1448m | 5.7m/s | 6.0°C | 87.3% | 0hPa | 0V | 00:00:00 | 00:00:00 | 00:00:00 | |
| LY3OO-11 | 2026-09-05 11:34:07 | 54.88568 | 23.89973 | 102° | 86km/h | 1333m | 4.7m/s | 6.8°C | 88.0% | 0hPa | 0V | 00:00:00 | 00:00:00 | 00:00:00 | |
| LY3OO-11 | 2026-09-05 11:33:47 | 54.88592 | 23.89243 | 89° | 88km/h | 1223m | 5.2m/s | 7.6°C | 0% | 0hPa | 0V | 00:00:00 | 00:00:00 | 00:00:00 | |
| LY3OO-11 | 2026-09-05 11:33:27 | 54.88590 | 23.88480 | 95° | 77km/h | 1103m | 6.8m/s | 8.7°C | 0% | 0hPa | 0V | 00:00:00 | 00:00:00 | 00:00:00 | |
| LY3OO-11 | 2026-09-05 11:33:06 | 54.88602 | 23.87786 | 93° | 75km/h | 982m | 6.0m/s | 0°C | 0% | 0hPa | 0V | 00:00:00 | 00:00:00 | 00:00:00 | |
| LY3OO-11 | 2026-09-05 11:32:21 | 54.88597 | 23.86384 | 87° | 69km/h | 726m | 5.2m/s | 0°C | 0% | 0hPa | 0V | 00:00:00 | 00:00:00 | 00:00:00 |